Time;durP1;ratioP1;P1;durP2;ratioP2;P2;SDS_P1;SDS_P2;PMS_P1;PMS_P2;Temp;Humidity;BMP_temperature;BMP_pressure;BME280_temperature;BME280_humidity;BME280_pressure;Samples;Min_cycle;Max_cycle;Signal;HPM_P1;HPM_P2
2023/08/04 00:00:00;;;;;;;11.23;8.45;;;;;;;30.81;94.24;100423.72;5172442;27;20026;-73
2023/08/04 00:02:46;;;;;;;10.40;8.10;;;;;;;30.80;94.95;100422.91;5173117;27;20137;-73
2023/08/04 00:05:32;;;;;;;10.00;9.00;;;;;;;30.78;99.20;100424.06;5173128;27;20026;-71
2023/08/04 00:08:18;;;;;;;11.80;8.77;;;;;;;30.55;100.00;100418.34;5172332;27;20051;-72
2023/08/04 00:11:04;;;;;;;11.32;8.52;;;;;;;30.63;99.52;100425.66;5172812;27;20117;-73
2023/08/04 00:13:49;;;;;;;12.48;9.98;;;;;;;30.46;100.00;100430.13;5172599;27;20041;-73
2023/08/04 00:16:35;;;;;;;19.05;8.88;;;;;;;30.30;100.00;100421.06;5173565;27;20018;-72
2023/08/04 00:19:21;;;;;;;9.40;8.45;;;;;;;30.40;100.00;100424.50;5172698;27;20022;-72
2023/08/04 00:22:06;;;;;;;12.35;9.05;;;;;;;30.29;100.00;100420.22;5173338;27;20408;-73
2023/08/04 00:24:52;;;;;;;14.48;9.15;;;;;;;30.39;100.00;100426.38;5173288;27;20037;-74
2023/08/04 00:27:38;;;;;;;11.48;8.82;;;;;;;30.39;100.00;100426.38;5173371;27;20082;-73
2023/08/04 00:30:24;;;;;;;17.20;9.25;;;;;;;-140.66;100.00;55571.53;5172452;27;20110;-73
2023/08/04 00:33:10;;;;;;;21.05;9.57;;;;;;;-140.66;100.00;55571.53;5172158;27;20455;-73
2023/08/04 00:35:55;;;;;;;20.52;8.98;;;;;;;-140.66;100.00;55571.53;5171980;27;20503;-73
2023/08/04 00:38:41;;;;;;;14.25;9.45;;;;;;;-140.66;100.00;55571.53;5172102;27;20022;-73
2023/08/04 00:41:27;;;;;;;10.57;9.38;;;;;;;-140.66;100.00;55571.53;5173273;27;20019;-73
2023/08/04 00:44:12;;;;;;;17.80;9.20;;;;;;;-140.66;100.00;55571.53;5172169;27;20054;-72
2023/08/04 00:46:59;;;;;;;10.75;9.18;;;;;;;-140.66;100.00;55571.53;5172015;27;20113;-72
2023/08/04 00:49:47;;;;;;;12.20;9.32;;;;;;;-140.66;100.00;55571.53;5158917;27;20443;-72
2023/08/04 00:52:33;;;;;;;12.05;9.23;;;;;;;-140.66;100.00;55571.53;5158265;27;20405;-72
2023/08/04 00:55:19;;;;;;;10.85;9.60;;;;;;;-140.66;100.00;55571.53;5157632;27;20535;-73
2023/08/04 00:58:05;;;;;;;11.52;9.52;;;;;;;-140.66;100.00;55571.53;5158216;27;20440;-73
2023/08/04 01:00:50;;;;;;;10.95;9.27;;;;;;;-140.66;100.00;55571.53;5158272;27;20367;-72
2023/08/04 01:03:40;;;;;;;11.40;9.80;;;;;;;-140.66;100.00;55571.53;5157369;27;20022;-73
2023/08/04 01:06:59;;;;;;;11.05;9.90;;;;;;;-140.66;100.00;55571.53;5158108;27;20054;-73
2023/08/04 01:10:03;;;;;;;14.95;9.68;;;;;;;-140.66;100.00;55571.53;5158689;27;20439;-73
2023/08/04 01:12:58;;;;;;;10.68;9.57;;;;;;;-140.66;100.00;55571.53;5157267;27;20470;-73
2023/08/04 01:15:44;;;;;;;12.40;9.73;;;;;;;-140.66;100.00;55571.53;5157454;27;20030;-72
2023/08/04 01:18:30;;;;;;;11.32;9.73;;;;;;;-140.66;100.00;55571.53;5157248;27;20045;-73
2023/08/04 01:21:16;;;;;;;13.50;10.10;;;;;;;-140.66;100.00;55571.53;5157392;27;20023;-72
2023/08/04 01:24:02;;;;;;;11.65;9.60;;;;;;;-140.66;100.00;55571.53;5157208;27;20033;-72
2023/08/04 01:26:49;;;;;;;13.25;9.55;;;;;;;-140.66;100.00;55571.53;5156138;27;20481;-73
2023/08/04 01:29:35;;;;;;;12.30;10.18;;;;;;;-140.66;100.00;55571.53;5157318;27;20114;-73
2023/08/04 01:32:21;;;;;;;14.82;10.68;;;;;;;-140.66;100.00;55571.53;5158026;27;20113;-73
2023/08/04 01:35:08;;;;;;;12.02;9.75;;;;;;;-140.66;100.00;55571.53;5158148;27;20030;-73
2023/08/04 01:37:54;;;;;;;12.95;10.02;;;;;;;-140.66;100.00;55571.53;5156996;27;20408;-73
2023/08/04 01:40:40;;;;;;;17.50;10.23;;;;;;;-140.66;100.00;55571.53;5157025;27;20023;-73
2023/08/04 01:43:26;;;;;;;16.05;9.98;;;;;;;-140.66;100.00;55571.53;5156887;27;20023;-73
2023/08/04 01:46:11;;;;;;;12.52;10.00;;;;;;;-140.66;100.00;55571.53;5158331;27;20043;-73
2023/08/04 01:48:57;;;;;;;12.07;10.05;;;;;;;-140.66;100.00;55571.53;5157357;27;20042;-73
2023/08/04 01:51:43;;;;;;;14.70;9.85;;;;;;;-140.66;100.00;55571.53;5156748;27;20023;-72
2023/08/04 01:54:29;;;;;;;14.57;9.63;;;;;;;-140.66;100.00;55571.53;5143346;27;20042;-72
2023/08/04 01:57:14;;;;;;;11.40;10.10;;;;;;;-140.66;100.00;55571.53;5156274;27;20018;-73
2023/08/04 02:00:00;;;;;;;13.13;10.23;;;;;;;-140.66;100.00;55571.53;5157405;27;20058;-73
2023/08/04 02:02:46;;;;;;;13.43;10.43;;;;;;;-140.66;100.00;55571.53;5157276;27;20019;-73
2023/08/04 02:05:32;;;;;;;11.98;10.68;;;;;;;-140.66;100.00;55571.53;5155928;27;20404;-73
2023/08/04 02:08:18;;;;;;;11.95;9.50;;;;;;;-140.66;100.00;55571.53;5156929;27;20022;-73
2023/08/04 02:11:03;;;;;;;17.75;11.25;;;;;;;-140.66;100.00;55571.53;5156530;27;20045;-72
2023/08/04 02:13:49;;;;;;;12.20;10.80;;;;;;;-140.66;100.00;55571.53;5157042;27;20045;-72
2023/08/04 02:16:35;;;;;;;12.07;10.75;;;;;;;-140.66;100.00;55571.53;5157075;27;20030;-72
2023/08/04 02:19:22;;;;;;;12.65;11.18;;;;;;;-140.66;100.00;55571.53;5156696;27;20436;-73
2023/08/04 02:22:07;;;;;;;14.02;10.68;;;;;;;-140.66;100.00;55571.53;5155711;27;20042;-74
2023/08/04 02:24:53;;;;;;;12.52;10.45;;;;;;;-140.66;100.00;55571.53;5156349;27;20019;-72
2023/08/04 02:27:39;;;;;;;12.13;10.60;;;;;;;-140.66;100.00;55571.53;5155805;27;20042;-72
2023/08/04 02:30:25;;;;;;;17.08;10.48;;;;;;;-140.66;100.00;55571.53;5157371;27;20033;-73
2023/08/04 02:33:11;;;;;;;14.23;10.80;;;;;;;-140.66;100.00;55571.53;5155642;27;20026;-72
2023/08/04 02:36:01;;;;;;;13.68;10.75;;;;;;;-140.66;100.00;55571.53;5156789;27;20515;-73
2023/08/04 02:38:47;;;;;;;18.20;10.70;;;;;;;-140.66;100.00;55571.53;5156259;27;20035;-72
2023/08/04 02:41:33;;;;;;;12.95;10.10;;;;;;;-140.66;100.00;55571.53;5155835;27;20033;-72
2023/08/04 02:44:19;;;;;;;12.98;9.85;;;;;;;-140.66;100.00;55571.53;5141084;27;20069;-73
2023/08/04 02:47:05;;;;;;;14.07;10.27;;;;;;;-140.66;100.00;55571.53;5155421;27;20038;-72
2023/08/04 02:49:51;;;;;;;13.68;10.10;;;;;;;-140.66;100.00;55571.53;5156859;27;20400;-72
2023/08/04 02:52:36;;;;;;;12.52;10.20;;;;;;;-140.66;100.00;55571.53;5156190;27;20127;-73
2023/08/04 02:55:22;;;;;;;14.43;9.20;;;;;;;-140.66;100.00;55571.53;5156065;27;20037;-74
2023/08/04 02:58:08;;;;;;;12.30;9.75;;;;;;;-140.66;100.00;55571.53;5155329;27;20023;-73
2023/08/04 03:00:53;;;;;;;12.30;9.68;;;;;;;-140.66;100.00;55571.53;5156805;27;20455;-74
2023/08/04 03:03:39;;;;;;;10.73;9.05;;;;;;;-140.66;100.00;55571.53;5156773;27;20397;-73
2023/08/04 03:06:25;;;;;;;11.48;9.60;;;;;;;-140.66;100.00;55571.53;5155279;27;20033;-73
2023/08/04 03:09:11;;;;;;;10.77;9.32;;;;;;;-140.66;100.00;55571.53;5155206;27;20022;-71
2023/08/04 03:11:57;;;;;;;12.30;9.57;;;;;;;-140.66;100.00;55571.53;5154853;27;20023;-73
2023/08/04 03:14:42;;;;;;;13.00;10.02;;;;;;;-140.66;100.00;55571.53;5155498;27;20027;-72
2023/08/04 03:17:28;;;;;;;14.02;9.63;;;;;;;-140.66;100.00;55571.53;5155630;27;20052;-73
2023/08/04 03:20:14;;;;;;;12.98;9.90;;;;;;;-140.66;100.00;55571.53;5154683;27;20409;-72
2023/08/04 03:23:00;;;;;;;13.07;10.02;;;;;;;-140.66;100.00;55571.53;5155491;27;20381;-73
2023/08/04 03:25:45;;;;;;;15.20;10.32;;;;;;;-140.66;100.00;55571.53;5155625;27;20359;-73
2023/08/04 03:28:31;;;;;;;11.23;9.70;;;;;;;-140.66;100.00;55571.53;5155229;27;20499;-73
2023/08/04 03:31:17;;;;;;;14.45;10.20;;;;;;;-140.66;100.00;55571.53;5155457;27;20446;-74
2023/08/04 03:34:03;;;;;;;11.90;9.88;;;;;;;-140.66;100.00;55571.53;5155477;27;20420;-74
2023/08/04 03:36:49;;;;;;;10.82;9.68;;;;;;;-140.66;100.00;55571.53;5153762;27;20468;-73
2023/08/04 03:39:35;;;;;;;21.55;10.43;;;;;;;-140.66;100.00;55571.53;5155452;27;20026;-73
2023/08/04 03:42:20;;;;;;;14.80;9.82;;;;;;;-140.66;100.00;55571.53;5155841;27;20023;-74
2023/08/04 03:45:07;;;;;;;23.55;9.85;;;;;;;-140.66;100.00;55571.53;5155014;27;20019;-72
2023/08/04 03:47:53;;;;;;;14.23;10.38;;;;;;;-140.66;100.00;55571.53;5153927;27;20047;-73
2023/08/04 03:50:38;;;;;;;11.68;9.48;;;;;;;-140.66;100.00;55571.53;5155543;27;20041;-74
2023/08/04 03:53:24;;;;;;;14.13;10.02;;;;;;;-140.66;100.00;55571.53;5154842;27;20117;-72
2023/08/04 03:56:10;;;;;;;13.30;9.85;;;;;;;-140.66;100.00;55571.53;5155162;27;20459;-72
2023/08/04 03:58:55;;;;;;;14.93;10.15;;;;;;;-140.66;100.00;55571.53;5154809;27;20075;-73
2023/08/04 04:01:41;;;;;;;13.32;10.45;;;;;;;-140.66;100.00;55571.53;5155017;27;20027;-73
2023/08/04 04:04:27;;;;;;;14.20;10.48;;;;;;;-140.66;100.00;55571.53;5155045;27;20034;-73
2023/08/04 04:07:13;;;;;;;12.68;9.48;;;;;;;-140.66;100.00;55571.53;5155461;27;20088;-73
2023/08/04 04:09:59;;;;;;;13.18;10.48;;;;;;;-140.66;100.00;55571.53;5154753;27;20027;-73
2023/08/04 04:12:44;;;;;;;14.40;10.07;;;;;;;-140.66;100.00;55571.53;5155167;27;20023;-73
2023/08/04 04:15:30;;;;;;;12.63;9.85;;;;;;;-140.66;100.00;55571.53;5155088;27;20076;-73
2023/08/04 04:18:16;;;;;;;14.40;10.27;;;;;;;-140.66;100.00;55571.53;5156089;27;20030;-74
2023/08/04 04:21:02;;;;;;;17.08;10.63;;;;;;;-140.66;100.00;55571.53;5155287;27;20022;-74
2023/08/04 04:23:47;;;;;;;13.90;10.13;;;;;;;-140.66;100.00;55571.53;5156312;27;20023;-74
2023/08/04 04:26:33;;;;;;;14.25;9.70;;;;;;;-140.66;100.00;55571.53;5159123;27;20449;-74
2023/08/04 04:29:19;;;;;;;13.32;10.15;;;;;;;-140.66;100.00;55571.53;5158625;27;20079;-74
2023/08/04 04:32:06;;;;;;;18.27;10.35;;;;;;;-140.66;100.00;55571.53;5159295;27;20027;-74
2023/08/04 04:34:52;;;;;;;21.48;10.52;;;;;;;-140.66;100.00;55571.53;5163128;27;20027;-73
2023/08/04 04:37:37;;;;;;;25.48;10.75;;;;;;;-140.66;100.00;55571.53;5173591;27;20082;-72
2023/08/04 04:40:23;;;;;;;17.33;10.65;;;;;;;-140.66;100.00;55571.53;5177742;27;20430;-72
2023/08/04 04:43:09;;;;;;;24.00;11.15;;;;;;;-140.66;100.00;55571.53;5169557;27;20054;-73
2023/08/04 04:45:55;;;;;;;14.93;10.02;;;;;;;-140.66;100.00;55571.53;5162004;27;20055;-73
2023/08/04 04:48:41;;;;;;;14.98;10.32;;;;;;;-140.66;100.00;55571.53;5167251;27;20042;-73
2023/08/04 04:51:28;;;;;;;17.40;11.43;;;;;;;-140.66;100.00;55571.53;5175518;27;20042;-74
2023/08/04 04:54:14;;;;;;;15.82;10.80;;;;;;;-140.66;100.00;55571.53;5158437;27;20443;-73
2023/08/04 04:56:59;;;;;;;16.75;10.50;;;;;;;-140.66;100.00;55571.53;5158811;27;20031;-73
2023/08/04 04:59:45;;;;;;;15.75;10.95;;;;;;;-140.66;100.00;55571.53;5158300;27;20447;-74
2023/08/04 05:02:31;;;;;;;18.02;11.57;;;;;;;-140.66;100.00;55571.53;5158483;27;20035;-73
2023/08/04 05:05:16;;;;;;;13.45;10.90;;;;;;;-140.66;100.00;55571.53;5158620;27;20444;-73
2023/08/04 05:08:02;;;;;;;13.23;10.82;;;;;;;-140.66;100.00;55571.53;5166820;27;20063;-73
2023/08/04 05:10:52;;;;;;;17.17;10.38;;;;;;;-140.66;100.00;55571.53;5175480;27;20079;-71
2023/08/04 05:13:41;;;;;;;18.23;10.68;;;;;;;-140.66;100.00;55571.53;5165302;27;20038;-73
2023/08/04 05:16:27;;;;;;;14.77;10.73;;;;;;;-140.66;100.00;55571.53;5159580;27;20367;-74
2023/08/04 05:19:13;;;;;;;18.45;10.90;;;;;;;-140.66;100.00;55571.53;5160387;27;20027;-74
2023/08/04 05:21:58;;;;;;;13.80;10.77;;;;;;;-140.66;100.00;55571.53;5159162;27;20026;-73
2023/08/04 05:24:44;;;;;;;13.43;10.50;;;;;;;-140.66;100.00;55571.53;5158890;27;20105;-73
2023/08/04 05:27:30;;;;;;;14.40;11.02;;;;;;;-140.66;100.00;55571.53;5158648;27;20435;-74
2023/08/04 05:30:16;;;;;;;13.57;11.13;;;;;;;-140.66;100.00;55571.53;5159621;27;20030;-73
2023/08/04 05:33:01;;;;;;;13.82;10.38;;;;;;;-140.66;100.00;55571.53;5158518;27;20045;-73
2023/08/04 05:35:47;;;;;;;13.35;10.38;;;;;;;-140.66;100.00;55571.53;5158463;27;20027;-75
2023/08/04 05:38:33;;;;;;;16.08;10.65;;;;;;;-140.66;100.00;55571.53;5157887;27;20026;-73
2023/08/04 05:41:19;;;;;;;19.45;10.77;;;;;;;-140.66;100.00;55571.53;5157689;27;20421;-73
2023/08/04 05:44:05;;;;;;;13.13;10.10;;;;;;;-140.66;100.00;55571.53;5157725;27;20027;-73
2023/08/04 05:46:50;;;;;;;12.43;10.48;;;;;;;-140.66;100.00;55571.53;5157015;27;20471;-74
2023/08/04 05:49:36;;;;;;;15.23;10.55;;;;;;;-140.66;100.00;55571.53;5156012;27;20053;-74
2023/08/04 05:52:22;;;;;;;14.55;10.82;;;;;;;-140.66;100.00;55571.53;5156882;27;20037;-73
2023/08/04 05:55:08;;;;;;;16.88;10.52;;;;;;;-140.66;100.00;55571.53;5157027;27;20116;-74
2023/08/04 05:57:56;;;;;;;19.23;11.45;;;;;;;-140.66;100.00;55571.53;5157179;27;20367;-73
2023/08/04 06:00:42;;;;;;;17.15;10.68;;;;;;;-140.66;100.00;55571.53;5157790;27;20033;-74
2023/08/04 06:03:28;;;;;;;16.88;10.93;;;;;;;-140.66;100.00;55571.53;5156746;27;20109;-74
2023/08/04 06:06:14;;;;;;;19.35;10.90;;;;;;;-140.66;100.00;55571.53;5157663;27;20060;-74
2023/08/04 06:09:00;;;;;;;16.02;11.18;;;;;;;-140.66;100.00;55571.53;5157348;27;20023;-74
2023/08/04 06:11:45;;;;;;;16.17;12.70;;;;;;;-140.66;100.00;55571.53;5157149;27;20037;-73
2023/08/04 06:14:31;;;;;;;13.93;10.63;;;;;;;-140.66;100.00;55571.53;5157351;27;20026;-74
2023/08/04 06:17:17;;;;;;;22.42;11.13;;;;;;;-140.66;100.00;55571.53;5159195;27;20094;-73
2023/08/04 06:20:04;;;;;;;18.65;11.80;;;;;;;-140.66;100.00;55571.53;5164641;27;20027;-74
2023/08/04 06:22:50;;;;;;;17.65;14.93;;;;;;;-140.66;100.00;55571.53;5164657;27;20026;-73
2023/08/04 06:25:35;;;;;;;14.20;10.30;;;;;;;-140.66;100.00;55571.53;5165904;27;20027;-73
2023/08/04 06:28:21;;;;;;;15.13;10.88;;;;;;;-140.66;100.00;55571.53;5161734;27;20109;-73
2023/08/04 06:31:07;;;;;;;16.20;10.90;;;;;;;-140.66;100.00;55571.53;5159383;27;20065;-73
2023/08/04 06:33:53;;;;;;;12.80;9.95;;;;;;;-140.66;100.00;55571.53;5162017;27;20018;-73
2023/08/04 06:36:38;;;;;;;15.88;11.32;;;;;;;-140.66;100.00;55571.53;5160273;27;20037;-72
2023/08/04 06:39:24;;;;;;;18.25;10.98;;;;;;;-140.66;100.00;55571.53;5163966;27;20042;-73
2023/08/04 06:42:10;;;;;;;13.98;11.48;;;;;;;-140.66;100.00;55571.53;5166634;27;20022;-74
2023/08/04 06:44:56;;;;;;;15.80;10.77;;;;;;;-140.66;100.00;55571.53;5166078;27;20019;-73
2023/08/04 06:47:42;;;;;;;12.45;11.23;;;;;;;-140.66;100.00;55571.53;5163979;27;20455;-74
2023/08/04 06:50:27;;;;;;;12.50;10.73;;;;;;;-140.66;100.00;55571.53;5162419;27;20034;-72
2023/08/04 06:53:13;;;;;;;14.77;11.15;;;;;;;-140.66;100.00;55571.53;5164880;27;20030;-74
2023/08/04 06:55:59;;;;;;;12.88;10.98;;;;;;;-140.66;100.00;55571.53;5166068;27;20443;-73
2023/08/04 06:58:44;;;;;;;14.13;10.50;;;;;;;-140.66;100.00;55571.53;5159412;27;20112;-73
2023/08/04 07:01:30;;;;;;;11.50;10.30;;;;;;;-140.66;100.00;55571.53;5160565;27;20026;-74
2023/08/04 07:04:16;;;;;;;15.45;11.20;;;;;;;-140.66;100.00;55571.53;5163790;27;20038;-73
2023/08/04 07:07:02;;;;;;;12.93;10.90;;;;;;;-140.66;100.00;55571.53;5163840;27;20031;-73
2023/08/04 07:09:48;;;;;;;12.60;10.60;;;;;;;-140.66;100.00;55571.53;5164854;27;20068;-73
2023/08/04 07:12:33;;;;;;;11.43;10.23;;;;;;;-140.66;100.00;55571.53;5165505;27;20042;-74
2023/08/04 07:15:19;;;;;;;19.67;11.38;;;;;;;-140.66;100.00;55571.53;5163842;27;20046;-72
2023/08/04 07:18:05;;;;;;;22.40;11.20;;;;;;;-140.66;100.00;55571.53;5166970;27;20030;-74
2023/08/04 07:20:51;;;;;;;11.98;10.77;;;;;;;-140.66;100.00;55571.53;5167691;27;20019;-75
2023/08/04 07:23:38;;;;;;;12.25;11.10;;;;;;;-140.66;100.00;55571.53;5168840;27;20096;-73
2023/08/04 07:26:23;;;;;;;12.57;11.20;;;;;;;-140.66;100.00;55571.53;5168300;27;20026;-76
2023/08/04 07:29:09;;;;;;;14.18;11.40;;;;;;;-140.66;100.00;55571.53;5168637;27;20027;-74
2023/08/04 07:31:55;;;;;;;11.18;10.18;;;;;;;-140.66;100.00;55571.53;5171991;27;20022;-74
2023/08/04 07:34:40;;;;;;;12.02;10.73;;;;;;;-140.66;100.00;55571.53;5168328;27;20487;-76
2023/08/04 07:37:28;;;;;;;15.82;10.88;;;;;;;-140.66;100.00;55571.53;5161614;27;20038;-75
2023/08/04 07:40:13;;;;;;;38.80;12.07;;;;;;;-140.66;100.00;55571.53;5163267;27;20078;-73
2023/08/04 07:42:59;;;;;;;14.95;11.10;;;;;;;-140.66;100.00;55571.53;5164649;27;20031;-73
2023/08/04 07:45:45;;;;;;;13.05;11.57;;;;;;;-140.66;100.00;55571.53;5164237;27;20023;-73
2023/08/04 07:48:31;;;;;;;11.73;10.52;;;;;;;-140.66;100.00;55571.53;5164454;27;20045;-73
2023/08/04 07:51:17;;;;;;;14.43;11.10;;;;;;;-140.66;100.00;55571.53;5163987;27;20057;-73
2023/08/04 07:54:03;;;;;;;12.15;10.85;;;;;;;-140.66;100.00;55571.53;5161880;27;20027;-73
2023/08/04 07:56:48;;;;;;;17.67;10.73;;;;;;;-140.66;100.00;55571.53;5164978;27;20038;-74
2023/08/04 07:59:34;;;;;;;20.67;11.20;;;;;;;-140.66;100.00;55571.53;5165651;27;20022;-74
2023/08/04 08:02:20;;;;;;;12.60;11.07;;;;;;;-140.66;100.00;55571.53;5169441;27;20034;-73
2023/08/04 08:05:07;;;;;;;13.80;10.65;;;;;;;-140.66;100.00;55571.53;5167263;27;20022;-73
2023/08/04 08:07:54;;;;;;;15.88;11.80;;;;;;;-140.66;100.00;55571.53;5167607;27;20109;-72
2023/08/04 08:10:39;;;;;;;14.18;11.05;;;;;;;-140.66;100.00;55571.53;5168038;27;20054;-74
2023/08/04 08:13:25;;;;;;;13.27;10.98;;;;;;;-140.66;100.00;55571.53;5167653;27;20455;-74
2023/08/04 08:16:14;;;;;;;12.63;10.90;;;;;;;-140.66;100.00;55571.53;5168214;27;20367;-73
2023/08/04 08:19:01;;;;;;;12.80;10.55;;;;;;;-140.66;100.00;55571.53;5167248;27;20026;-73
2023/08/04 08:21:47;;;;;;;12.07;10.80;;;;;;;-140.66;100.00;55571.53;5166119;27;20030;-74
2023/08/04 08:24:33;;;;;;;16.45;11.68;;;;;;;-140.66;100.00;55571.53;5162853;27;20053;-74
2023/08/04 08:27:19;;;;;;;15.77;11.15;;;;;;;-140.66;100.00;55571.53;5162784;27;20046;-73
2023/08/04 08:30:05;;;;;;;15.43;11.68;;;;;;;-140.66;100.00;55571.53;5161433;27;20018;-74
2023/08/04 08:32:51;;;;;;;14.98;10.63;;;;;;;-140.66;100.00;55571.53;5159892;27;20022;-74
2023/08/04 08:35:36;;;;;;;12.55;10.88;;;;;;;-140.66;100.00;55571.53;5159531;27;20095;-74
2023/08/04 08:38:22;;;;;;;15.90;10.82;;;;;;;-140.66;100.00;55571.53;5159022;27;20027;-75
2023/08/04 08:41:11;;;;;;;15.60;11.07;;;;;;;-140.66;100.00;55571.53;5158742;27;20404;-75
2023/08/04 08:43:56;;;;;;;23.00;14.05;;;;;;;-140.66;100.00;55571.53;5160249;27;20026;-73
2023/08/04 08:46:42;;;;;;;13.52;10.55;;;;;;;-140.66;100.00;55571.53;5158192;27;20023;-74
2023/08/04 08:49:32;;;;;;;26.95;11.65;;;;;;;-140.66;100.00;55571.53;5158425;27;20033;-74
2023/08/04 08:52:20;;;;;;;14.60;10.70;;;;;;;-140.66;100.00;55571.53;5162584;27;20036;-75
2023/08/04 08:55:06;;;;;;;13.68;10.57;;;;;;;-140.66;100.00;55571.53;5175229;27;20033;-74
2023/08/04 08:57:54;;;;;;;12.60;10.60;;;;;;;-140.66;100.00;55571.53;5172532;27;20051;-74
2023/08/04 09:00:40;;;;;;;16.50;11.45;;;;;;;-140.66;100.00;55571.53;5169538;27;20057;-74
2023/08/04 09:03:27;;;;;;;18.40;11.13;;;;;;;-140.66;100.00;55571.53;5170503;27;20083;-75
2023/08/04 09:06:13;;;;;;;16.27;11.98;;;;;;;-140.66;100.00;55571.53;5171562;27;20050;-74
2023/08/04 09:09:01;;;;;;;12.98;10.73;;;;;;;-140.66;100.00;55571.53;5170303;27;20018;-73
2023/08/04 09:11:47;;;;;;;16.98;11.98;;;;;;;-140.66;100.00;55571.53;5170269;27;20033;-74
2023/08/04 09:14:53;;;;;;;20.42;11.63;;;;;;;-140.66;100.00;55571.53;5166002;27;20087;-76
2023/08/04 09:17:40;;;;;;;21.42;11.32;;;;;;;-140.66;100.00;55571.53;5172286;27;20022;-72
2023/08/04 09:20:28;;;;;;;19.38;12.13;;;;;;;-140.66;100.00;55571.53;5165657;27;20083;-74
2023/08/04 09:23:14;;;;;;;18.42;11.20;;;;;;;-140.66;100.00;55571.53;5162137;27;20023;-74
2023/08/04 09:25:59;;;;;;;27.48;12.60;;;;;;;-140.66;100.00;55571.53;5163607;27;20440;-74
2023/08/04 09:28:46;;;;;;;19.80;12.30;;;;;;;-140.66;100.00;55571.53;5164847;27;20084;-75
2023/08/04 09:31:47;;;;;;;26.55;12.40;;;;;;;-140.66;100.00;55571.53;5164658;27;20102;-75
2023/08/04 09:34:32;;;;;;;21.70;12.15;;;;;;;-140.66;100.00;55571.53;5160120;27;20031;-74
2023/08/04 09:37:18;;;;;;;18.52;11.77;;;;;;;-140.66;100.00;55571.53;5164385;27;20038;-72
2023/08/04 09:40:12;;;;;;;18.70;12.02;;;;;;;-140.66;100.00;55571.53;5174443;27;20041;-72
2023/08/04 09:42:58;;;;;;;18.90;11.55;;;;;;;-140.66;100.00;55571.53;5170945;27;20027;-74
2023/08/04 09:45:44;;;;;;;18.33;11.00;;;;;;;-140.66;100.00;55571.53;5159628;27;20046;-74
2023/08/04 09:48:30;;;;;;;20.02;11.35;;;;;;;-140.66;100.00;55571.53;5157175;27;20046;-74
2023/08/04 09:51:20;;;;;;;26.65;11.68;;;;;;;-140.66;100.00;55571.53;5158369;27;20034;-75
2023/08/04 09:54:06;;;;;;;17.48;10.15;;;;;;;-140.66;100.00;55571.53;5160242;27;20420;-75
2023/08/04 09:56:52;;;;;;;15.10;9.93;;;;;;;-140.66;100.00;55571.53;5156996;27;20023;-74
2023/08/04 09:59:38;;;;;;;15.63;10.15;;;;;;;-140.66;100.00;55571.53;5157336;27;20034;-74
2023/08/04 10:02:24;;;;;;;15.57;10.57;;;;;;;-140.66;100.00;55571.53;5164195;27;20413;-76
2023/08/04 10:05:11;;;;;;;16.25;9.93;;;;;;;-140.66;100.00;55571.53;5158920;27;20088;-75
2023/08/04 10:07:58;;;;;;;13.50;9.85;;;;;;;-140.66;100.00;55571.53;5157015;27;20014;-75
2023/08/04 10:10:44;;;;;;;18.58;10.52;;;;;;;-140.66;100.00;55571.53;5163543;27;20022;-75
2023/08/04 10:13:34;;;;;;;11.77;9.20;;;;;;;-140.66;100.00;55571.53;5160111;27;20386;-75
2023/08/04 10:16:27;;;;;;;10.68;8.77;;;;;;;-140.66;100.00;55571.53;5158879;27;20363;-74
2023/08/04 10:19:14;;;;;;;9.88;8.88;;;;;;;-140.66;100.00;55571.53;5165159;27;20026;-73
2023/08/04 10:22:05;;;;;;;16.50;9.40;;;;;;;-140.66;100.00;55571.53;5162666;27;20119;-73
2023/08/04 10:24:50;;;;;;;13.32;9.20;;;;;;;-140.66;100.00;55571.53;5158110;27;20132;-73
2023/08/04 10:27:49;;;;;;;15.23;9.57;;;;;;;-140.66;100.00;55571.53;5158431;27;20025;-74
2023/08/04 10:30:34;;;;;;;11.85;9.30;;;;;;;-140.66;100.00;55571.53;5165892;27;20022;-75
2023/08/04 10:33:21;;;;;;;9.80;8.80;;;;;;;-140.66;100.00;55571.53;5166438;27;20037;-74
2023/08/04 10:36:09;;;;;;;18.02;9.40;;;;;;;-140.66;100.00;55571.53;5166595;27;20049;-74
2023/08/04 10:38:57;;;;;;;12.05;9.38;;;;;;;-140.66;100.00;55571.53;5165449;27;20022;-74
2023/08/04 10:41:42;;;;;;;13.75;9.50;;;;;;;-140.66;100.00;55571.53;5164152;27;20029;-73
2023/08/04 10:44:49;;;;;;;11.57;9.38;;;;;;;-140.66;100.00;55571.53;5164452;27;20046;-73
2023/08/04 10:47:39;;;;;;;11.88;8.80;;;;;;;-140.66;100.00;55571.53;5164389;27;20460;-74
2023/08/04 10:50:25;;;;;;;13.07;9.23;;;;;;;-140.66;100.00;55571.53;5165621;27;20019;-73
2023/08/04 10:53:11;;;;;;;10.15;9.13;;;;;;;-140.66;100.00;55571.53;5166150;27;20027;-73
2023/08/04 10:55:58;;;;;;;10.55;9.20;;;;;;;-140.66;100.00;55571.53;5169896;27;20030;-73
2023/08/04 10:58:44;;;;;;;13.25;8.80;;;;;;;-140.66;100.00;55571.53;5168601;27;20023;-74
2023/08/04 11:01:30;;;;;;;10.70;9.25;;;;;;;-140.66;100.00;55571.53;5167142;27;20050;-73
2023/08/04 11:04:16;;;;;;;11.93;9.40;;;;;;;-140.66;100.00;55571.53;5168714;27;20061;-74
2023/08/04 11:07:03;;;;;;;13.40;9.50;;;;;;;-140.66;100.00;55571.53;5167205;27;20029;-73
2023/08/04 11:09:52;;;;;;;12.43;9.30;;;;;;;-140.66;100.00;55571.53;5170419;27;20029;-75
2023/08/04 11:12:38;;;;;;;13.15;9.40;;;;;;;-140.66;100.00;55571.53;5170047;27;20026;-73
2023/08/04 11:15:24;;;;;;;15.73;9.77;;;;;;;-140.66;100.00;55571.53;5169124;27;20033;-74
2023/08/04 11:18:12;;;;;;;13.30;9.13;;;;;;;-140.66;100.00;55571.53;5169726;27;20030;-74
2023/08/04 11:21:03;;;;;;;15.13;10.00;;;;;;;-140.66;100.00;55571.53;5170201;27;20113;-74
2023/08/04 11:23:49;;;;;;;17.25;9.90;;;;;;;-140.66;100.00;55571.53;5170043;27;20439;-74
2023/08/04 11:26:36;;;;;;;12.18;9.43;;;;;;;-140.66;100.00;55571.53;5168867;27;20046;-75
2023/08/04 11:29:25;;;;;;;11.18;9.75;;;;;;;-140.66;100.00;55571.53;5168367;27;20058;-74
2023/08/04 11:32:20;;;;;;;11.23;9.07;;;;;;;-140.66;100.00;55571.53;5169351;27;20050;-73
2023/08/04 11:35:06;;;;;;;12.32;9.88;;;;;;;-140.66;100.00;55571.53;5168174;27;20054;-72
2023/08/04 11:37:51;;;;;;;13.38;9.00;;;;;;;-140.66;100.00;55571.53;5167479;27;20105;-73
2023/08/04 11:40:54;;;;;;;11.65;8.98;;;;;;;-140.66;100.00;55571.53;5168876;27;20090;-73
2023/08/04 11:43:40;;;;;;;10.48;9.23;;;;;;;-140.66;100.00;55571.53;5166890;27;20033;-74
2023/08/04 11:46:27;;;;;;;17.90;9.55;;;;;;;-140.66;100.00;55571.53;5166937;27;20105;-74
2023/08/04 11:49:14;;;;;;;17.08;10.05;;;;;;;-140.66;100.00;55571.53;5166610;27;20034;-72
2023/08/04 11:52:00;;;;;;;10.45;9.00;;;;;;;-140.66;100.00;55571.53;5167841;27;20026;-74
2023/08/04 11:54:57;;;;;;;11.02;8.77;;;;;;;-140.66;100.00;55571.53;5170823;27;20019;-74
2023/08/04 11:57:54;;;;;;;9.63;8.65;;;;;;;-140.66;100.00;55571.53;5170605;27;20076;-75
2023/08/04 12:00:40;;;;;;;26.23;10.65;;;;;;;-140.66;100.00;55571.53;5167108;27;20022;-73
2023/08/04 12:03:42;;;;;;;16.83;9.48;;;;;;;-140.66;100.00;55571.53;5158386;27;20100;-75
2023/08/04 12:06:29;;;;;;;12.07;9.05;;;;;;;-140.66;100.00;55571.53;5167233;27;20102;-74
2023/08/04 12:09:17;;;;;;;14.07;9.80;;;;;;;-140.66;100.00;55571.53;5167509;27;20034;-72
2023/08/04 12:12:04;;;;;;;10.07;9.07;;;;;;;-140.66;100.00;55571.53;5166738;27;20059;-74
2023/08/04 12:14:57;;;;;;;16.80;9.60;;;;;;;-140.66;100.00;55571.53;5164692;27;20022;-73
2023/08/04 12:17:44;;;;;;;14.73;9.65;;;;;;;-140.66;100.00;55571.53;5166937;27;20023;-72
2023/08/04 12:20:29;;;;;;;14.05;10.00;;;;;;;-140.66;100.00;55571.53;5164393;27;20030;-73
2023/08/04 12:23:15;;;;;;;12.13;9.70;;;;;;;-140.66;100.00;55571.53;5164516;27;20501;-73